createdAt,value
2022-11-27T00:00:59.486Z,11.75
2022-11-27T00:03:26.959Z,10.63
2022-11-27T00:05:55.412Z,11.95
2022-11-27T00:08:38.284Z,12.90
2022-11-27T00:11:10.074Z,11.00
2022-11-27T00:13:38.402Z,9.88
2022-11-27T00:16:06.216Z,12.25
2022-11-27T00:18:33.623Z,10.02
2022-11-27T00:21:05.190Z,11.07
2022-11-27T00:23:33.055Z,9.05
2022-11-27T00:26:03.479Z,9.23
2022-11-27T00:28:33.385Z,8.13
2022-11-27T00:31:02.327Z,10.68
2022-11-27T00:33:29.806Z,12.20
2022-11-27T00:35:57.126Z,12.20
2022-11-27T00:38:24.453Z,8.98
2022-11-27T00:40:52.009Z,8.05
2022-11-27T00:43:19.598Z,12.32
2022-11-27T00:45:50.316Z,9.35
2022-11-27T00:48:17.460Z,9.05
2022-11-27T00:50:47.154Z,7.95
2022-11-27T00:53:14.406Z,9.88
2022-11-27T00:55:41.520Z,14.70
2022-11-27T00:58:08.672Z,7.95
2022-11-27T01:00:35.823Z,10.75
2022-11-27T01:03:03.036Z,12.27
2022-11-27T01:05:30.282Z,8.27
2022-11-27T01:07:57.517Z,8.40
2022-11-27T01:10:24.738Z,8.60
2022-11-27T01:12:51.890Z,12.15
2022-11-27T01:15:19.013Z,7.63
2022-11-27T01:17:48.581Z,10.98
2022-11-27T01:20:15.712Z,9.25
2022-11-27T01:22:42.786Z,9.30
2022-11-27T01:25:10.097Z,10.57
2022-11-27T01:27:37.418Z,10.98
2022-11-27T01:30:04.788Z,12.68
2022-11-27T01:32:31.943Z,8.68
2022-11-27T01:34:59.072Z,10.73
2022-11-27T01:37:26.292Z,6.82
2022-11-27T01:39:54.394Z,8.82
2022-11-27T01:42:21.498Z,12.32
2022-11-27T01:44:50.824Z,8.25
2022-11-27T01:47:25.193Z,7.22
2022-11-27T01:49:54.470Z,11.00
2022-11-27T01:52:24.932Z,9.13
2022-11-27T01:54:56.881Z,8.05
2022-11-27T01:57:44.616Z,8.05
2022-11-27T02:00:14.223Z,9.55
2022-11-27T02:02:42.269Z,10.98
2022-11-27T02:05:11.075Z,11.50
2022-11-27T02:07:38.867Z,10.65
2022-11-27T02:10:07.625Z,8.65
2022-11-27T02:12:55.152Z,11.13
2022-11-27T02:15:25.887Z,7.97
2022-11-27T02:18:00.253Z,9.93
2022-11-27T02:20:47.707Z,11.00
2022-11-27T02:23:33.445Z,8.82
2022-11-27T02:26:19.706Z,9.07
2022-11-27T02:29:00.344Z,7.80
2022-11-27T02:31:54.795Z,11.43
2022-11-27T02:34:35.288Z,11.18
2022-11-27T02:37:23.668Z,13.75
2022-11-27T02:40:04.594Z,11.07
2022-11-27T02:42:47.257Z,12.68
2022-11-27T02:45:15.744Z,7.82
2022-11-27T02:47:47.491Z,11.68
2022-11-27T02:50:22.406Z,14.05
2022-11-27T02:52:51.141Z,10.80
2022-11-27T02:55:30.534Z,12.02
2022-11-27T02:57:58.567Z,9.13
2022-11-27T03:00:25.855Z,10.25
2022-11-27T03:03:01.679Z,10.48
2022-11-27T03:05:31.335Z,9.93
2022-11-27T03:08:10.647Z,10.32
2022-11-27T03:10:44.473Z,16.50
2022-11-27T03:13:12.428Z,11.27
2022-11-27T03:15:48.831Z,15.73
2022-11-27T03:18:23.698Z,11.75
2022-11-27T03:20:53.520Z,11.05
2022-11-27T03:23:20.813Z,9.68
2022-11-27T03:25:47.950Z,13.35
2022-11-27T03:28:15.491Z,13.32
2022-11-27T03:30:42.623Z,12.38
2022-11-27T03:33:10.056Z,11.27
2022-11-27T03:35:38.509Z,7.95
2022-11-27T03:38:05.777Z,9.05
2022-11-27T03:40:42.782Z,10.13
2022-11-27T03:43:15.384Z,14.75
2022-11-27T03:46:03.588Z,10.80
2022-11-27T03:48:44.867Z,14.43
2022-11-27T03:51:12.056Z,10.57
2022-11-27T03:53:46.152Z,10.27
2022-11-27T03:56:19.651Z,7.60
2022-11-27T03:59:01.563Z,11.55
2022-11-27T04:01:29.378Z,10.65
2022-11-27T04:03:56.668Z,13.60
2022-11-27T04:06:24.031Z,9.70
2022-11-27T04:08:51.589Z,9.98
2022-11-27T04:11:18.940Z,9.65
2022-11-27T04:13:46.294Z,13.02
2022-11-27T04:16:13.692Z,11.25
2022-11-27T04:18:41.309Z,11.10
2022-11-27T04:21:08.630Z,14.18
2022-11-27T04:27:05.219Z,11.63
2022-11-27T04:29:37.182Z,10.43
2022-11-27T04:32:06.236Z,9.00
2022-11-27T04:34:35.001Z,8.75
2022-11-27T04:37:02.257Z,10.95
2022-11-27T04:39:29.772Z,11.80
2022-11-27T04:41:57.203Z,13.27
2022-11-27T04:44:27.649Z,11.65
2022-11-27T04:46:54.856Z,11.32
2022-11-27T04:49:22.102Z,11.05
2022-11-27T04:51:49.350Z,12.75
2022-11-27T04:54:16.476Z,12.50
2022-11-27T04:56:43.762Z,10.68
2022-11-27T04:59:10.912Z,9.75
2022-11-27T05:01:38.084Z,12.00
2022-11-27T05:04:05.320Z,13.70
2022-11-27T05:06:32.603Z,9.88
2022-11-27T05:09:01.982Z,9.80
2022-11-27T05:11:29.900Z,11.05
2022-11-27T05:14:17.091Z,8.93
2022-11-27T05:17:01.074Z,9.32
2022-11-27T05:19:29.620Z,10.07
2022-11-27T05:21:56.922Z,8.50
2022-11-27T05:24:25.757Z,8.13
2022-11-27T05:26:53.208Z,9.55
2022-11-27T05:29:31.751Z,8.48
2022-11-27T05:31:58.852Z,6.97
2022-11-27T05:34:26.161Z,7.80
2022-11-27T05:36:53.369Z,8.07
2022-11-27T05:39:20.487Z,8.75
2022-11-27T05:41:47.634Z,11.65
2022-11-27T05:44:24.869Z,7.93
2022-11-27T05:46:53.485Z,9.65
2022-11-27T05:49:21.081Z,8.98
2022-11-27T05:51:51.451Z,9.00
2022-11-27T05:54:19.391Z,8.05
2022-11-27T05:56:46.891Z,11.25
2022-11-27T05:59:14.097Z,8.05
2022-11-27T06:01:41.384Z,10.35
2022-11-27T06:04:08.585Z,7.75
2022-11-27T06:06:35.738Z,9.30
2022-11-27T06:09:04.841Z,8.77
2022-11-27T06:11:35.985Z,9.73
2022-11-27T06:14:05.590Z,6.75
2022-11-27T06:16:34.270Z,7.60
2022-11-27T06:19:02.241Z,9.20
2022-11-27T06:21:29.973Z,8.63
2022-11-27T06:23:58.657Z,8.60
2022-11-27T06:26:29.699Z,7.95
2022-11-27T06:28:57.529Z,9.27
2022-11-27T06:31:27.032Z,8.32
2022-11-27T06:33:55.785Z,7.88
2022-11-27T06:36:28.648Z,9.88
2022-11-27T06:38:55.923Z,8.95
2022-11-27T06:41:27.266Z,7.13
2022-11-27T06:43:55.233Z,10.98
2022-11-27T06:46:26.728Z,8.18
2022-11-27T06:48:55.675Z,8.23
2022-11-27T06:51:24.780Z,8.38
2022-11-27T06:53:53.038Z,8.30
2022-11-27T06:56:21.617Z,8.02
2022-11-27T06:58:51.537Z,6.82
2022-11-27T07:01:18.899Z,7.53
2022-11-27T07:03:46.453Z,7.53
2022-11-27T07:06:15.547Z,7.47
2022-11-27T07:08:52.202Z,8.90
2022-11-27T07:11:21.159Z,9.00
2022-11-27T07:13:49.455Z,7.38
2022-11-27T07:16:30.435Z,8.77
2022-11-27T07:19:00.369Z,7.28
2022-11-27T07:21:28.338Z,10.32
2022-11-27T07:23:59.118Z,11.27
2022-11-27T07:26:28.331Z,8.18
2022-11-27T07:28:56.006Z,8.43
2022-11-27T07:31:24.295Z,10.20
2022-11-27T07:33:54.531Z,6.97
2022-11-27T07:36:31.777Z,9.52
2022-11-27T07:38:58.977Z,7.55
2022-11-27T07:41:32.257Z,8.57
2022-11-27T07:44:01.760Z,12.23
2022-11-27T07:46:30.270Z,12.52
2022-11-27T07:48:58.916Z,8.25
2022-11-27T07:51:27.179Z,11.23
2022-11-27T07:53:54.449Z,8.23
2022-11-27T07:56:21.768Z,9.93
2022-11-27T07:58:49.240Z,11.27
2022-11-27T08:01:18.420Z,11.00
2022-11-27T08:03:45.947Z,9.55
2022-11-27T08:06:23.775Z,10.35
2022-11-27T08:08:51.493Z,8.43
2022-11-27T08:11:20.036Z,8.65
2022-11-27T08:13:47.401Z,8.48
2022-11-27T08:16:14.723Z,9.05
2022-11-27T08:18:42.110Z,11.07
2022-11-27T08:21:09.469Z,7.97
2022-11-27T08:23:36.828Z,8.10
2022-11-27T08:26:07.730Z,8.35
2022-11-27T08:28:35.094Z,9.57
2022-11-27T08:31:25.218Z,9.05
2022-11-27T08:33:52.712Z,10.90
2022-11-27T08:36:20.043Z,8.10
2022-11-27T08:38:47.682Z,8.55
2022-11-27T08:41:28.177Z,11.00
2022-11-27T08:43:55.293Z,12.35
2022-11-27T08:46:22.430Z,13.90
2022-11-27T08:52:20.491Z,7.03
2022-11-27T08:54:48.670Z,9.90
2022-11-27T08:57:21.371Z,8.38
2022-11-27T08:59:49.543Z,7.70
2022-11-27T09:02:17.306Z,8.82
2022-11-27T09:04:47.702Z,10.35
2022-11-27T09:07:17.844Z,8.25
2022-11-27T09:09:45.090Z,10.55
2022-11-27T09:12:12.287Z,10.10
2022-11-27T09:14:40.146Z,10.10
2022-11-27T09:17:07.485Z,9.98
2022-11-27T09:19:51.227Z,9.05
2022-11-27T09:22:19.174Z,7.80
2022-11-27T09:24:47.244Z,9.85
2022-11-27T09:27:14.905Z,9.85
2022-11-27T09:29:42.771Z,10.80
2022-11-27T09:32:13.133Z,13.25
2022-11-27T09:34:41.192Z,9.18
2022-11-27T09:37:09.443Z,10.43
2022-11-27T09:39:37.042Z,11.15
2022-11-27T09:42:06.044Z,10.57
2022-11-27T09:44:48.789Z,11.77
2022-11-27T09:47:21.074Z,8.93
2022-11-27T09:49:52.507Z,12.60
2022-11-27T09:52:38.850Z,8.90
2022-11-27T09:55:15.321Z,9.82
2022-11-27T09:57:42.497Z,9.95
2022-11-27T10:00:15.742Z,9.43
2022-11-27T10:02:43.746Z,10.38
2022-11-27T10:05:15.374Z,8.15
2022-11-27T10:08:09.883Z,9.13
2022-11-27T10:10:41.500Z,9.45
2022-11-27T10:13:15.151Z,10.65
2022-11-27T10:15:42.510Z,8.85
2022-11-27T10:18:18.612Z,9.60
2022-11-27T10:20:49.839Z,12.45
2022-11-27T10:23:32.328Z,14.50
2022-11-27T10:26:06.579Z,12.55
2022-11-27T10:28:58.549Z,10.98
2022-11-27T10:31:33.803Z,11.93
2022-11-27T10:34:03.224Z,10.40
2022-11-27T10:36:44.528Z,9.90
2022-11-27T10:39:41.246Z,11.85
2022-11-27T10:42:15.588Z,10.27
2022-11-27T10:44:45.297Z,9.57
2022-11-27T10:47:15.825Z,11.77
2022-11-27T10:49:43.897Z,13.63
2022-11-27T10:52:16.688Z,13.52
2022-11-27T10:54:45.770Z,9.43
2022-11-27T10:57:32.019Z,10.85
2022-11-27T11:00:03.658Z,11.75
2022-11-27T11:02:35.761Z,10.30
2022-11-27T11:05:35.058Z,11.98
2022-11-27T11:08:00.911Z,13.98
2022-11-27T11:10:32.049Z,10.73
2022-11-27T11:13:16.666Z,9.68
2022-11-27T11:15:53.237Z,11.50
2022-11-27T11:18:24.175Z,10.68
2022-11-27T11:20:53.575Z,9.30
2022-11-27T11:23:22.531Z,10.43
2022-11-27T11:25:53.027Z,12.53
2022-11-27T11:28:20.638Z,10.20
2022-11-27T11:30:59.834Z,12.35
2022-11-27T11:33:28.528Z,11.00
2022-11-27T11:35:58.189Z,9.07
2022-11-27T11:38:31.888Z,11.00
2022-11-27T11:41:07.640Z,9.82
2022-11-27T11:43:36.633Z,8.55
2022-11-27T11:46:08.738Z,11.82
2022-11-27T11:48:36.332Z,12.13
2022-11-27T11:51:16.450Z,9.77
2022-11-27T11:53:45.460Z,12.30
2022-11-27T11:56:22.091Z,11.88
2022-11-27T11:58:56.115Z,10.55
2022-11-27T12:01:38.800Z,10.65
2022-11-27T12:04:06.600Z,12.88
2022-11-27T12:06:43.714Z,11.63
2022-11-27T12:09:11.234Z,11.90
2022-11-27T12:11:48.268Z,10.50
2022-11-27T12:14:21.891Z,9.68
2022-11-27T12:17:01.600Z,10.85
2022-11-27T12:19:34.926Z,11.10
2022-11-27T12:22:02.063Z,11.95
2022-11-27T12:24:35.855Z,10.15
2022-11-27T12:27:21.472Z,9.98
2022-11-27T12:29:58.420Z,9.97
2022-11-27T12:32:38.003Z,11.65
2022-11-27T12:35:24.397Z,11.10
2022-11-27T12:37:51.753Z,12.27
2022-11-27T12:40:19.620Z,12.15
2022-11-27T12:43:09.135Z,9.82
2022-11-27T12:45:48.419Z,9.38
2022-11-27T12:48:19.567Z,10.80
2022-11-27T12:50:53.239Z,11.15
2022-11-27T12:53:31.778Z,9.82
2022-11-27T12:56:02.026Z,12.47
2022-11-27T12:58:31.331Z,14.63
2022-11-27T13:01:05.652Z,10.55
2022-11-27T13:03:43.000Z,12.38
2022-11-27T13:06:16.054Z,10.45
2022-11-27T13:08:52.615Z,11.27
2022-11-27T13:11:25.417Z,9.90
2022-11-27T13:14:04.353Z,11.55
2022-11-27T13:16:41.463Z,9.82
2022-11-27T13:19:14.953Z,9.15
2022-11-27T13:21:43.532Z,11.83
2022-11-27T13:24:13.860Z,11.57
2022-11-27T13:26:47.065Z,10.85
2022-11-27T13:29:25.958Z,11.13
2022-11-27T13:31:55.530Z,9.57
2022-11-27T13:34:24.864Z,10.55
2022-11-27T13:37:03.255Z,10.10
2022-11-27T13:39:32.281Z,10.90
2022-11-27T13:42:22.714Z,12.30
2022-11-27T13:44:56.058Z,9.77
2022-11-27T13:47:24.741Z,9.13
2022-11-27T13:50:10.597Z,10.30
2022-11-27T13:52:38.034Z,8.82
2022-11-27T13:55:10.022Z,9.98
2022-11-27T13:57:38.641Z,10.43
2022-11-27T14:00:10.731Z,10.93
2022-11-27T14:02:45.849Z,9.75
2022-11-27T14:05:14.818Z,10.55
2022-11-27T14:07:45.700Z,10.77
2022-11-27T14:10:15.499Z,9.07
2022-11-27T14:12:43.497Z,10.77
2022-11-27T14:15:21.541Z,11.30
2022-11-27T14:17:49.611Z,10.10
2022-11-27T14:20:23.428Z,9.50
2022-11-27T14:23:12.267Z,12.48
2022-11-27T14:25:40.062Z,13.00
2022-11-27T14:28:36.894Z,11.25
2022-11-27T14:31:04.932Z,11.23
2022-11-27T14:33:59.773Z,9.52
2022-11-27T14:36:30.212Z,11.55
2022-11-27T14:38:57.375Z,12.27
2022-11-27T14:41:25.163Z,13.55
2022-11-27T14:44:06.072Z,11.07
2022-11-27T14:46:34.663Z,12.30
2022-11-27T14:49:03.337Z,13.75
2022-11-27T14:51:35.783Z,11.53
2022-11-27T14:54:14.201Z,12.70
2022-11-27T14:56:42.844Z,12.07
2022-11-27T14:59:17.517Z,13.77
2022-11-27T15:01:46.830Z,10.93
2022-11-27T15:04:32.746Z,11.52
2022-11-27T15:07:00.345Z,11.82
2022-11-27T15:09:32.559Z,16.15
2022-11-27T15:12:03.689Z,12.45
2022-11-27T15:14:31.611Z,12.00
2022-11-27T15:17:00.476Z,11.70
2022-11-27T15:19:37.812Z,11.95
2022-11-27T15:22:06.107Z,12.82
2022-11-27T15:24:35.065Z,10.77
2022-11-27T15:27:19.245Z,11.95
2022-11-27T15:30:02.023Z,14.48
2022-11-27T15:32:35.258Z,11.95
2022-11-27T15:35:13.009Z,11.13
2022-11-27T15:37:40.749Z,12.43
2022-11-27T15:40:22.909Z,11.10
2022-11-27T15:42:50.271Z,13.45
2022-11-27T15:45:17.438Z,13.25
2022-11-27T15:47:44.877Z,12.80
2022-11-27T15:50:16.800Z,11.95
2022-11-27T15:52:47.158Z,13.20
2022-11-27T15:55:16.660Z,13.23
2022-11-27T15:57:44.275Z,11.75
2022-11-27T16:00:13.708Z,12.48
2022-11-27T16:02:41.228Z,13.10
2022-11-27T16:05:09.239Z,12.60
2022-11-27T16:07:36.683Z,11.25
2022-11-27T16:10:04.824Z,10.75
2022-11-27T16:12:32.145Z,10.82
2022-11-27T16:14:59.622Z,12.52
2022-11-27T16:17:28.039Z,14.43
2022-11-27T16:19:55.300Z,12.07
2022-11-27T16:22:22.490Z,10.48
2022-11-27T16:24:49.983Z,12.75
2022-11-27T16:27:17.454Z,12.77
2022-11-27T16:29:44.939Z,11.35
2022-11-27T16:32:12.423Z,11.27
2022-11-27T16:34:40.312Z,13.50
2022-11-27T16:37:07.903Z,12.00
2022-11-27T16:39:35.146Z,12.80
2022-11-27T16:42:02.518Z,14.02
2022-11-27T16:44:30.234Z,13.57
2022-11-27T16:46:57.599Z,12.48
2022-11-27T16:49:24.905Z,11.60
2022-11-27T16:51:52.224Z,12.00
2022-11-27T16:54:19.753Z,9.45
2022-11-27T16:56:48.240Z,10.27
2022-11-27T16:59:15.739Z,9.90
2022-11-27T17:01:43.331Z,10.13
2022-11-27T17:04:16.071Z,11.10
2022-11-27T17:06:43.814Z,11.40
2022-11-27T17:09:12.622Z,11.65
2022-11-27T17:11:43.565Z,13.48
2022-11-27T17:14:11.735Z,12.80
2022-11-27T17:16:41.210Z,12.02
2022-11-27T17:19:08.510Z,13.48
2022-11-27T17:21:35.961Z,10.80
2022-11-27T17:24:14.700Z,10.88
2022-11-27T17:26:45.638Z,11.25
2022-11-27T17:29:13.679Z,10.93
2022-11-27T17:31:41.028Z,11.20
2022-11-27T17:34:08.899Z,13.00
2022-11-27T17:36:37.455Z,12.15
2022-11-27T17:39:06.309Z,12.18
2022-11-27T17:41:34.112Z,10.05
2022-11-27T17:44:01.974Z,11.93
2022-11-27T17:46:30.890Z,10.60
2022-11-27T17:49:00.960Z,11.00
2022-11-27T17:51:30.211Z,10.05
2022-11-27T17:54:00.693Z,11.50
2022-11-27T17:56:28.698Z,11.23
2022-11-27T17:58:55.827Z,11.50
2022-11-27T18:01:29.379Z,10.43
2022-11-27T18:04:00.343Z,13.45
2022-11-27T18:06:27.892Z,14.80
2022-11-27T18:08:57.305Z,12.75
2022-11-27T18:11:25.636Z,10.63
2022-11-27T18:13:52.803Z,10.98
2022-11-27T18:16:21.389Z,12.25
2022-11-27T18:18:49.721Z,12.73
2022-11-27T18:21:18.897Z,10.95
2022-11-27T18:29:23.410Z,13.32
2022-11-27T18:31:51.980Z,14.57
2022-11-27T18:34:19.618Z,13.10
2022-11-27T18:36:47.133Z,15.65
2022-11-27T18:39:14.616Z,13.63
2022-11-27T18:41:42.060Z,12.40
2022-11-27T18:44:12.268Z,11.23
2022-11-27T18:46:39.969Z,12.65
2022-11-27T18:49:07.108Z,16.05
2022-11-27T18:51:34.471Z,12.48
2022-11-27T18:54:01.619Z,11.48
2022-11-27T18:56:30.645Z,13.13
2022-11-27T18:59:01.393Z,12.60
2022-11-27T19:01:30.135Z,13.20
2022-11-27T19:03:58.039Z,12.82
2022-11-27T19:06:27.413Z,13.95
2022-11-27T19:08:55.101Z,13.35
2022-11-27T19:11:23.587Z,11.88
2022-11-27T19:13:52.303Z,14.15
2022-11-27T19:16:20.844Z,13.82
2022-11-27T19:18:48.243Z,14.13
2022-11-27T19:21:22.004Z,14.48
2022-11-27T19:23:52.295Z,16.60
2022-11-27T19:26:21.482Z,17.52
2022-11-27T19:28:49.468Z,18.33
2022-11-27T19:31:17.386Z,14.98
2022-11-27T19:33:45.052Z,14.43
2022-11-27T19:36:14.192Z,16.70
2022-11-27T19:38:42.635Z,15.85
2022-11-27T19:41:11.465Z,16.17
2022-11-27T19:43:38.574Z,15.40
2022-11-27T19:46:28.308Z,14.15
2022-11-27T19:48:56.838Z,12.95
2022-11-27T19:51:24.708Z,14.20
2022-11-27T19:53:51.939Z,15.27
2022-11-27T19:56:19.547Z,15.52
2022-11-27T19:58:46.933Z,17.42
2022-11-27T20:01:18.692Z,11.65
2022-11-27T20:03:46.620Z,11.23
2022-11-27T20:06:19.570Z,14.77
2022-11-27T20:08:47.414Z,13.90
2022-11-27T20:11:16.408Z,15.15
2022-11-27T20:13:43.819Z,11.50
2022-11-27T20:16:12.296Z,13.60
2022-11-27T20:18:39.550Z,12.27
2022-11-27T20:21:08.461Z,12.68
2022-11-27T20:23:35.945Z,15.07
2022-11-27T20:26:07.378Z,12.68
2022-11-27T20:28:35.007Z,13.63
2022-11-27T20:31:04.000Z,11.95
2022-11-27T20:33:32.755Z,15.77
2022-11-27T20:36:02.496Z,11.88
2022-11-27T20:38:30.093Z,17.10
2022-11-27T20:40:57.572Z,12.85
2022-11-27T20:43:24.906Z,13.52
2022-11-27T20:45:53.220Z,14.82
2022-11-27T20:48:20.746Z,12.60
2022-11-27T20:50:51.347Z,15.48
2022-11-27T20:53:18.607Z,12.48
2022-11-27T20:55:46.078Z,16.33
2022-11-27T20:58:13.224Z,15.23
2022-11-27T21:00:40.417Z,14.50
2022-11-27T21:03:07.785Z,11.98
2022-11-27T21:05:35.023Z,12.25
2022-11-27T21:08:02.237Z,14.68
2022-11-27T21:10:29.492Z,11.80
2022-11-27T21:12:56.801Z,14.68
2022-11-27T21:15:24.132Z,14.43
2022-11-27T21:17:52.231Z,13.35
2022-11-27T21:20:20.635Z,14.60
2022-11-27T21:22:47.762Z,12.48
2022-11-27T21:25:14.909Z,12.82
2022-11-27T21:27:42.092Z,13.20
2022-11-27T21:30:09.514Z,14.98
2022-11-27T21:32:36.826Z,13.43
2022-11-27T21:35:04.136Z,13.65
2022-11-27T21:37:31.452Z,13.38
2022-11-27T21:39:59.116Z,13.57
2022-11-27T21:42:28.424Z,13.93
2022-11-27T21:44:55.572Z,15.10
2022-11-27T21:47:22.759Z,13.52
2022-11-27T21:49:51.178Z,16.13
2022-11-27T21:52:18.585Z,12.32
2022-11-27T21:54:46.784Z,15.25
2022-11-27T21:57:14.050Z,15.77
2022-11-27T21:59:42.860Z,13.75
2022-11-27T22:02:12.032Z,13.23
2022-11-27T22:04:39.545Z,14.18
2022-11-27T22:07:10.758Z,15.85
2022-11-27T22:09:39.613Z,15.05
2022-11-27T22:12:10.064Z,13.23
2022-11-27T22:14:38.323Z,14.10
2022-11-27T22:17:05.641Z,16.90
2022-11-27T22:19:36.535Z,16.30
2022-11-27T22:22:05.122Z,12.82
2022-11-27T22:24:32.527Z,14.43
2022-11-27T22:27:00.018Z,16.63
2022-11-27T22:29:30.547Z,14.05
2022-11-27T22:31:58.121Z,14.23
2022-11-27T22:34:25.580Z,15.00
2022-11-27T22:36:53.227Z,15.57
2022-11-27T22:39:20.805Z,15.63
2022-11-27T22:41:51.195Z,13.95
2022-11-27T22:44:20.890Z,15.45
2022-11-27T22:46:48.169Z,14.18
2022-11-27T22:49:16.699Z,13.75
2022-11-27T22:51:43.898Z,13.32
2022-11-27T22:54:12.859Z,15.43
2022-11-27T22:56:40.191Z,14.57
2022-11-27T23:01:55.364Z,13.50
2022-11-27T23:04:25.063Z,14.00
2022-11-27T23:06:52.325Z,15.45
2022-11-27T23:09:19.510Z,13.73
2022-11-27T23:11:47.226Z,15.10
2022-11-27T23:14:14.421Z,14.13
2022-11-27T23:16:41.846Z,13.90
2022-11-27T23:19:09.395Z,14.45
2022-11-27T23:21:38.689Z,13.70
2022-11-27T23:24:11.051Z,11.73
2022-11-27T23:26:38.596Z,14.07
2022-11-27T23:29:07.270Z,12.15
2022-11-27T23:31:38.743Z,13.73
2022-11-27T23:34:07.750Z,14.20
2022-11-27T23:36:35.370Z,14.77
2022-11-27T23:39:03.343Z,14.77
2022-11-27T23:41:30.484Z,11.85
2022-11-27T23:43:58.078Z,12.73
2022-11-27T23:46:26.964Z,15.00
2022-11-27T23:48:55.311Z,13.50
2022-11-27T23:51:24.844Z,13.85
2022-11-27T23:53:52.783Z,13.50
2022-11-27T23:56:24.568Z,15.10
2022-11-27T23:58:51.827Z,15.05
